Time;durP1;ratioP1;P1;durP2;ratioP2;P2;SDS_P1;SDS_P2;PMS_P1;PMS_P2;Temp;Humidity;BMP_temperature;BMP_pressure;BME280_temperature;BME280_humidity;BME280_pressure;Samples;Min_cycle;Max_cycle;Signal;HPM_P1;HPM_P2
2022/09/26 00:00:22;;;;;;;84.45;79.85;;;;;;;;;;10153304;28;20056;-68
2022/09/26 00:05:18;;;;;;;84.85;80.40;;;;;;;;;;10148455;28;20047;-68
2022/09/26 00:10:15;;;;;;;87.60;82.47;;;;;;;;;;10152862;28;20045;-69
2022/09/26 00:15:11;;;;;;;86.00;81.40;;;;;;;;;;10161352;28;20060;-68
2022/09/26 00:20:08;;;;;;;89.15;84.00;;;;;;;;;;10158343;28;20476;-68
2022/09/26 00:25:05;;;;;;;86.32;81.43;;;;;;;;;;10155621;28;20047;-68
2022/09/26 00:30:02;;;;;;;85.82;81.32;;;;;;;;;;10150851;28;20469;-68
2022/09/26 00:34:58;;;;;;;80.55;76.05;;;;;;;;;;10152468;28;20057;-68
2022/09/26 00:39:54;;;;;;;80.10;75.93;;;;;;;;;;10146531;28;20050;-68
2022/09/26 00:44:55;;;;;;;80.35;75.55;;;;;;;;;;10154830;28;20047;-68
2022/09/26 00:49:55;;;;;;;78.85;74.70;;;;;;;;;;10154288;28;20054;-69
2022/09/26 00:54:53;;;;;;;77.88;73.63;;;;;;;;;;10144417;28;20452;-69
2022/09/26 00:59:53;;;;;;;83.60;79.05;;;;;;;;;;10153695;28;20501;-67
2022/09/26 01:10:02;;;;;;;82.20;77.55;;;;;;;;;;10193529;23;19926;-70
2022/09/26 01:14:59;;;;;;;79.78;75.40;;;;;;;;;;10099959;28;20051;-70
2022/09/26 01:20:06;;;;;;;77.75;73.72;;;;;;;;;;10071468;28;20047;-69
2022/09/26 01:25:21;;;;;;;80.20;75.82;;;;;;;;;;10070043;28;20050;-69
2022/09/26 01:30:27;;;;;;;78.95;74.47;;;;;;;;;;10065861;28;20047;-69
2022/09/26 01:35:33;;;;;;;80.63;76.38;;;;;;;;;;10057112;28;20052;-69
2022/09/26 01:40:36;;;;;;;82.57;78.13;;;;;;;;;;10069311;28;20042;-70
2022/09/26 01:45:44;;;;;;;79.57;75.38;;;;;;;;;;10081692;28;20121;-69
2022/09/26 01:50:44;;;;;;;82.20;77.30;;;;;;;;;;10061705;28;20071;-69
2022/09/26 01:56:09;;;;;;;80.63;76.22;;;;;;;;;;10059133;28;20057;-69
2022/09/26 02:01:09;;;;;;;86.13;81.32;;;;;;;;;;10063815;28;20067;-70
2022/09/26 02:06:10;;;;;;;83.90;79.38;;;;;;;;;;10065764;28;20134;-70
2022/09/26 02:11:15;;;;;;;87.90;83.20;;;;;;;;;;10061660;28;20417;-70
2022/09/26 02:16:16;;;;;;;93.72;88.78;;;;;;;;;;10050750;28;20059;-70
2022/09/26 02:21:15;;;;;;;93.90;88.82;;;;;;;;;;10069229;28;20090;-69
2022/09/26 02:26:11;;;;;;;94.10;89.18;;;;;;;;;;10064079;28;20086;-69
2022/09/26 02:31:08;;;;;;;94.35;89.53;;;;;;;;;;10067995;28;20429;-69
2022/09/26 02:36:07;;;;;;;85.38;80.38;;;;;;;;;;10064811;28;20394;-69
2022/09/26 02:41:06;;;;;;;94.82;89.63;;;;;;;;;;10072482;28;20049;-70
2022/09/26 02:46:18;;;;;;;86.78;82.03;;;;;;;;;;10058788;28;20416;-70
2022/09/26 02:51:32;;;;;;;83.93;79.60;;;;;;;;;;10070476;28;20044;-70
2022/09/26 02:56:37;;;;;;;90.65;85.72;;;;;;;;;;10065389;28;20416;-71
2022/09/26 03:01:42;;;;;;;87.63;82.93;;;;;;;;;;10073660;28;20509;-69
2022/09/26 03:06:43;;;;;;;86.80;82.32;;;;;;;;;;10064651;28;20548;-69
2022/09/26 03:11:40;;;;;;;91.20;86.47;;;;;;;;;;10065658;28;20074;-69
2022/09/26 03:16:38;;;;;;;84.53;80.22;;;;;;;;;;10061363;28;20059;-70
2022/09/26 03:21:34;;;;;;;73.00;69.18;;;;;;;;;;10066093;28;20055;-70
2022/09/26 03:26:33;;;;;;;70.75;66.88;;;;;;;;;;10066899;28;20428;-70
2022/09/26 03:31:30;;;;;;;68.95;64.55;;;;;;;;;;10063980;28;20050;-70
2022/09/26 03:36:26;;;;;;;62.78;59.28;;;;;;;;;;10060022;28;20134;-70
2022/09/26 03:41:24;;;;;;;56.53;53.53;;;;;;;;;;10067557;28;20063;-70
2022/09/26 03:46:21;;;;;;;59.75;56.50;;;;;;;;;;10069747;28;20154;-69
2022/09/26 03:51:17;;;;;;;56.08;52.75;;;;;;;;;;10058686;28;20055;-70
2022/09/26 03:56:15;;;;;;;60.25;56.47;;;;;;;;;;10065650;28;20062;-70
2022/09/26 04:01:12;;;;;;;54.55;51.45;;;;;;;;;;10058589;28;20044;-69
2022/09/26 04:06:09;;;;;;;52.45;48.97;;;;;;;;;;10055716;28;20051;-70
2022/09/26 04:11:07;;;;;;;51.28;48.38;;;;;;;;;;10055492;28;20514;-70
2022/09/26 04:16:05;;;;;;;54.80;51.60;;;;;;;;;;10050615;28;20058;-70
2022/09/26 04:21:04;;;;;;;57.15;54.03;;;;;;;;;;10054020;28;20065;-72
2022/09/26 04:26:06;;;;;;;54.97;51.72;;;;;;;;;;10064515;28;20489;-71
2022/09/26 04:31:03;;;;;;;59.92;56.05;;;;;;;;;;10061148;28;20059;-71
2022/09/26 04:36:00;;;;;;;60.20;56.90;;;;;;;;;;10056010;28;20098;-71
2022/09/26 04:40:57;;;;;;;54.72;51.63;;;;;;;;;;10072324;28;20702;-70
2022/09/26 04:45:53;;;;;;;54.22;50.97;;;;;;;;;;10082881;28;20171;-70
2022/09/26 04:50:50;;;;;;;50.15;47.15;;;;;;;;;;10064059;28;20693;-70
2022/09/26 04:55:46;;;;;;;46.50;43.67;;;;;;;;;;10049939;28;20051;-70
2022/09/26 05:00:48;;;;;;;45.58;42.78;;;;;;;;;;10067215;28;20039;-70
2022/09/26 05:05:46;;;;;;;48.00;45.15;;;;;;;;;;10068116;28;20066;-71
2022/09/26 05:10:42;;;;;;;48.97;46.13;;;;;;;;;;10065914;28;20051;-71
2022/09/26 05:15:40;;;;;;;54.97;51.88;;;;;;;;;;10059391;28;20047;-70
2022/09/26 05:20:37;;;;;;;53.33;50.03;;;;;;;;;;10069525;28;20043;-70
2022/09/26 05:30:52;;;;;;;52.58;49.40;;;;;;;;;;10066016;28;20049;-70
2022/09/26 05:35:49;;;;;;;46.78;44.08;;;;;;;;;;10062242;28;20047;-70
2022/09/26 05:40:58;;;;;;;42.05;39.45;;;;;;;;;;10067874;28;20050;-71
2022/09/26 05:45:58;;;;;;;40.60;38.05;;;;;;;;;;10059185;28;20079;-70
2022/09/26 05:50:54;;;;;;;39.50;36.90;;;;;;;;;;10061250;28;20710;-70
2022/09/26 05:55:51;;;;;;;40.28;38.00;;;;;;;;;;10050306;28;20043;-70
2022/09/26 06:00:48;;;;;;;36.80;34.45;;;;;;;;;;10067109;28;20546;-70
2022/09/26 06:05:44;;;;;;;33.17;31.08;;;;;;;;;;10061298;28;20058;-70
2022/09/26 06:10:40;;;;;;;31.33;29.42;;;;;;;;;;10056450;28;20067;-70
2022/09/26 06:15:36;;;;;;;29.10;27.30;;;;;;;;;;10064514;28;20046;-70
2022/09/26 06:20:33;;;;;;;26.92;25.08;;;;;;;;;;10068078;28;20051;-70
2022/09/26 06:25:29;;;;;;;24.67;22.92;;;;;;;;;;10067006;28;20068;-70
2022/09/26 06:30:25;;;;;;;23.77;21.98;;;;;;;;;;10074933;28;20773;-70
2022/09/26 06:35:22;;;;;;;21.42;19.73;;;;;;;;;;10071614;28;20585;-70
2022/09/26 06:40:18;;;;;;;20.75;19.25;;;;;;;;;;10076767;28;20055;-70
2022/09/26 06:45:15;;;;;;;21.00;19.27;;;;;;;;;;10073155;28;20062;-70
2022/09/26 06:50:11;;;;;;;20.10;18.50;;;;;;;;;;10064665;28;20436;-70
2022/09/26 06:55:08;;;;;;;20.52;18.88;;;;;;;;;;10063066;28;20062;-71
2022/09/26 07:00:05;;;;;;;20.17;18.80;;;;;;;;;;10076235;28;20050;-71
2022/09/26 07:05:04;;;;;;;20.80;19.30;;;;;;;;;;10072051;28;20046;-70
2022/09/26 07:10:00;;;;;;;20.08;18.48;;;;;;;;;;10076375;28;20035;-70
2022/09/26 07:14:59;;;;;;;20.92;19.35;;;;;;;;;;10069649;28;20051;-71
2022/09/26 07:19:55;;;;;;;19.50;18.20;;;;;;;;;;10075430;28;20053;-70
2022/09/26 07:24:51;;;;;;;19.73;18.38;;;;;;;;;;10073314;28;20047;-71
2022/09/26 07:29:48;;;;;;;19.73;18.42;;;;;;;;;;10066568;28;20689;-70
2022/09/26 07:34:44;;;;;;;18.67;17.52;;;;;;;;;;10061261;28;20054;-71
2022/09/26 07:39:41;;;;;;;19.05;17.80;;;;;;;;;;10068000;28;20050;-70
2022/09/26 07:44:37;;;;;;;22.08;20.67;;;;;;;;;;10072041;28;20050;-71
2022/09/26 07:50:13;;;;;;;23.02;21.35;;;;;;;;;;10060092;28;20429;-70
2022/09/26 07:55:11;;;;;;;22.35;20.50;;;;;;;;;;10067603;28;20055;-70
2022/09/26 08:00:11;;;;;;;22.40;20.60;;;;;;;;;;10073678;28;20132;-70
2022/09/26 08:05:09;;;;;;;20.98;19.65;;;;;;;;;;10069086;28;20086;-70
2022/09/26 08:10:06;;;;;;;22.35;20.80;;;;;;;;;;10067580;28;20044;-71
2022/09/26 08:15:06;;;;;;;22.77;21.17;;;;;;;;;;10063169;28;20063;-70
2022/09/26 08:20:02;;;;;;;25.17;23.38;;;;;;;;;;10066873;28;20052;-70
2022/09/26 08:24:59;;;;;;;23.25;21.45;;;;;;;;;;10068875;28;21267;-70
2022/09/26 08:29:55;;;;;;;24.25;22.65;;;;;;;;;;10054407;28;20042;-71
2022/09/26 08:34:51;;;;;;;24.52;22.63;;;;;;;;;;10060863;28;20397;-70
2022/09/26 08:39:48;;;;;;;22.50;20.75;;;;;;;;;;10067726;28;20059;-71
2022/09/26 08:46:12;;;;;;;21.15;19.55;;;;;;;;;;10072640;28;20047;-70
2022/09/26 08:50:24;;;;;;;21.88;20.25;;;;;;;;;;10052933;28;20070;-71
2022/09/26 08:55:22;;;;;;;21.13;19.58;;;;;;;;;;10065733;28;20422;-71
2022/09/26 09:00:20;;;;;;;20.02;18.52;;;;;;;;;;10063826;28;20054;-71
2022/09/26 09:05:19;;;;;;;21.27;19.48;;;;;;;;;;10068725;28;20047;-70
2022/09/26 09:10:17;;;;;;;20.10;18.40;;;;;;;;;;10066261;28;20055;-71
2022/09/26 09:15:32;;;;;;;21.70;19.92;;;;;;;;;;10060884;28;20139;-70
2022/09/26 09:20:37;;;;;;;19.58;17.83;;;;;;;;;;10068369;28;20277;-71
2022/09/26 09:25:45;;;;;;;18.50;17.10;;;;;;;;;;10068046;28;20043;-71
2022/09/26 09:30:44;;;;;;;17.67;16.27;;;;;;;;;;10061071;28;20039;-70
2022/09/26 09:35:43;;;;;;;18.55;16.95;;;;;;;;;;10067348;28;20058;-71
2022/09/26 09:40:54;;;;;;;17.95;16.45;;;;;;;;;;10064067;28;20054;-71
2022/09/26 09:45:51;;;;;;;17.10;15.70;;;;;;;;;;10072249;28;20118;-70
2022/09/26 09:50:54;;;;;;;16.60;15.25;;;;;;;;;;10071508;28;20047;-70
2022/09/26 09:56:01;;;;;;;17.30;15.95;;;;;;;;;;10060162;28;20390;-71
2022/09/26 10:01:14;;;;;;;17.15;15.75;;;;;;;;;;10063989;28;20045;-70
2022/09/26 10:06:11;;;;;;;16.40;15.13;;;;;;;;;;10063058;28;20055;-71
2022/09/26 10:11:30;;;;;;;16.48;15.25;;;;;;;;;;10057753;28;20055;-71
2022/09/26 10:16:27;;;;;;;12.93;12.02;;;;;;;;;;10060754;28;20044;-70
2022/09/26 10:21:29;;;;;;;14.70;12.60;;;;;;;;;;10069019;28;20138;-70
2022/09/26 10:26:33;;;;;;;;;;;;;;;;;;10060672;28;20397;-71
2022/09/26 10:31:35;;;;;;;13.35;12.40;;;;;;;;;;10063874;28;19922;-71
2022/09/26 10:36:39;;;;;;;12.00;11.02;;;;;;;;;;10067498;28;20522;-71
2022/09/26 10:41:39;;;;;;;11.23;10.35;;;;;;;;;;10071253;28;20059;-70
2022/09/26 10:46:35;;;;;;;11.38;10.38;;;;;;;;;;10066773;28;20726;-70
2022/09/26 10:51:32;;;;;;;11.80;10.60;;;;;;;;;;10063225;28;20035;-71
2022/09/26 10:56:31;;;;;;;11.23;10.32;;;;;;;;;;10055602;28;20060;-70
2022/09/26 11:01:30;;;;;;;11.45;10.60;;;;;;;;;;10069537;28;20043;-70
2022/09/26 11:06:42;;;;;;;11.18;10.02;;;;;;;;;;10067368;28;20044;-70
2022/09/26 11:11:39;;;;;;;11.27;10.25;;;;;;;;;;10049196;28;20754;-70
2022/09/26 11:16:44;;;;;;;10.35;9.45;;;;;;;;;;10068336;28;20062;-70
2022/09/26 11:21:40;;;;;;;12.40;11.40;;;;;;;;;;10077199;28;20047;-70
2022/09/26 11:26:50;;;;;;;12.00;10.90;;;;;;;;;;10071843;28;20043;-71
2022/09/26 11:31:46;;;;;;;12.10;10.98;;;;;;;;;;10071871;28;20039;-71
2022/09/26 11:36:55;;;;;;;12.57;11.30;;;;;;;;;;10066110;28;20054;-70
2022/09/26 11:42:02;;;;;;;13.48;12.32;;;;;;;;;;10068401;28;20043;-71
2022/09/26 11:47:18;;;;;;;15.68;14.52;;;;;;;;;;10066642;28;20563;-71
2022/09/26 11:52:22;;;;;;;15.82;14.73;;;;;;;;;;10057921;28;20070;-71
2022/09/26 11:57:31;;;;;;;17.15;15.85;;;;;;;;;;10071062;28;20063;-71
2022/09/26 12:02:31;;;;;;;20.92;19.52;;;;;;;;;;10072018;28;20542;-71
2022/09/26 12:07:43;;;;;;;21.33;19.73;;;;;;;;;;10070549;28;20130;-71
2022/09/26 12:13:00;;;;;;;24.30;22.67;;;;;;;;;;10059868;28;20054;-72
2022/09/26 12:18:02;;;;;;;30.42;28.33;;;;;;;;;;10062286;28;20054;-71
2022/09/26 12:23:17;;;;;;;32.78;30.77;;;;;;;;;;10070373;28;20053;-71
2022/09/26 12:28:25;;;;;;;45.65;42.95;;;;;;;;;;10066487;28;20132;-71
2022/09/26 12:33:31;;;;;;;44.45;41.85;;;;;;;;;;10070479;28;20517;-71
2022/09/26 12:38:46;;;;;;;38.30;35.83;;;;;;;;;;10061577;28;20813;-71
2022/09/26 12:43:52;;;;;;;36.30;33.97;;;;;;;;;;10064980;28;20044;-71
2022/09/26 12:49:08;;;;;;;32.97;31.08;;;;;;;;;;10067772;28;20046;-72
2022/09/26 12:54:10;;;;;;;32.17;30.25;;;;;;;;;;10081794;28;20110;-71
2022/09/26 12:59:21;;;;;;;30.02;28.00;;;;;;;;;;10070428;28;20047;-71
2022/09/26 13:04:20;;;;;;;31.77;29.73;;;;;;;;;;10069588;28;20047;-72
2022/09/26 13:09:32;;;;;;;31.48;29.50;;;;;;;;;;10063091;28;20050;-71
2022/09/26 13:14:47;;;;;;;34.75;32.70;;;;;;;;;;10064735;28;20056;-71
2022/09/26 13:19:54;;;;;;;36.40;34.20;;;;;;;;;;10066158;28;20047;-71
2022/09/26 13:24:53;;;;;;;40.33;37.92;;;;;;;;;;10064106;28;20055;-71
2022/09/26 13:29:56;;;;;;;44.15;41.65;;;;;;;;;;10069531;28;20052;-71
2022/09/26 13:35:08;;;;;;;41.63;39.22;;;;;;;;;;10061812;28;20043;-72
2022/09/26 13:40:15;;;;;;;41.00;38.53;;;;;;;;;;10076622;28;20059;-71
2022/09/26 13:45:21;;;;;;;39.80;37.40;;;;;;;;;;10069209;28;20122;-71
2022/09/26 13:50:24;;;;;;;39.05;36.55;;;;;;;;;;10069918;28;20051;-71
2022/09/26 13:55:21;;;;;;;34.15;32.03;;;;;;;;;;10073435;28;20154;-71
2022/09/26 14:00:22;;;;;;;31.70;29.80;;;;;;;;;;10063316;28;20448;-71
2022/09/26 14:05:18;;;;;;;30.55;28.45;;;;;;;;;;10064127;28;20061;-71
2022/09/26 14:10:19;;;;;;;29.33;27.42;;;;;;;;;;10065466;28;20051;-71
2022/09/26 14:15:15;;;;;;;28.15;26.30;;;;;;;;;;10055786;28;20396;-71
2022/09/26 14:20:18;;;;;;;33.70;31.70;;;;;;;;;;10079812;28;20118;-71
2022/09/26 14:25:47;;;;;;;37.17;34.85;;;;;;;;;;10064368;28;20051;-71
2022/09/26 14:31:03;;;;;;;42.88;40.38;;;;;;;;;;10031980;28;20047;-71
2022/09/26 14:36:17;;;;;;;48.63;45.83;;;;;;;;;;10057821;28;20055;-71
2022/09/26 14:41:16;;;;;;;54.30;51.20;;;;;;;;;;10064281;28;20781;-71
2022/09/26 14:46:24;;;;;;;59.47;56.28;;;;;;;;;;10064789;28;20047;-71
2022/09/26 14:51:23;;;;;;;69.35;65.05;;;;;;;;;;10074361;28;20421;-72
2022/09/26 14:56:28;;;;;;;69.63;65.75;;;;;;;;;;10070800;28;20043;-72
2022/09/26 15:01:36;;;;;;;73.63;69.45;;;;;;;;;;10054917;28;20048;-72
2022/09/26 15:06:40;;;;;;;71.30;67.30;;;;;;;;;;10059830;28;20057;-71
2022/09/26 15:11:55;;;;;;;73.90;69.85;;;;;;;;;;10061254;28;20074;-71
2022/09/26 15:16:53;;;;;;;75.25;71.05;;;;;;;;;;10060311;28;20035;-71
2022/09/26 15:21:54;;;;;;;75.95;71.85;;;;;;;;;;10061407;28;20051;-72
2022/09/26 15:26:51;;;;;;;80.22;75.80;;;;;;;;;;10053141;28;20129;-71
2022/09/26 15:31:47;;;;;;;76.50;72.30;;;;;;;;;;10056216;28;20035;-71
2022/09/26 15:36:47;;;;;;;79.07;74.85;;;;;;;;;;10056965;28;20047;-70
2022/09/26 15:46:59;;;;;;;80.10;75.70;;;;;;;;;;10057427;28;20044;-71
2022/09/26 15:51:55;;;;;;;85.05;80.00;;;;;;;;;;10054829;28;20457;-71
2022/09/26 15:56:53;;;;;;;88.68;83.85;;;;;;;;;;10049721;28;20091;-71
2022/09/26 16:01:50;;;;;;;89.00;84.22;;;;;;;;;;10054181;28;20039;-71
2022/09/26 16:06:56;;;;;;;92.55;87.32;;;;;;;;;;10046493;28;20062;-71
2022/09/26 16:11:55;;;;;;;90.97;86.05;;;;;;;;;;10062649;28;20497;-71
2022/09/26 16:17:08;;;;;;;94.80;89.60;;;;;;;;;;10064839;28;20046;-71
2022/09/26 16:22:22;;;;;;;94.50;89.22;;;;;;;;;;10068718;28;20043;-71
2022/09/26 16:27:22;;;;;;;95.22;89.88;;;;;;;;;;10068539;28;20046;-71
2022/09/26 16:32:19;;;;;;;96.25;90.88;;;;;;;;;;10058048;28;20513;-72
2022/09/26 16:37:21;;;;;;;97.10;91.80;;;;;;;;;;10051103;28;20313;-72
2022/09/26 16:42:19;;;;;;;97.57;92.17;;;;;;;;;;10054495;28;20412;-71
2022/09/26 16:47:39;;;;;;;98.60;93.30;;;;;;;;;;10069135;28;20513;-71
2022/09/26 16:52:35;;;;;;;96.30;90.88;;;;;;;;;;10064617;28;20551;-71
2022/09/26 16:57:32;;;;;;;98.03;92.70;;;;;;;;;;10052562;28;20051;-71
2022/09/26 17:02:29;;;;;;;100.50;95.00;;;;;;;;;;10048180;28;20066;-70
2022/09/26 17:07:25;;;;;;;100.78;95.43;;;;;;;;;;10053751;28;20051;-70
2022/09/26 17:12:22;;;;;;;99.15;93.85;;;;;;;;;;10057833;28;20050;-70
2022/09/26 17:17:24;;;;;;;104.00;98.55;;;;;;;;;;10044410;28;20056;-71
2022/09/26 17:22:21;;;;;;;100.53;95.32;;;;;;;;;;10053794;28;20060;-71
2022/09/26 17:27:24;;;;;;;96.88;92.00;;;;;;;;;;10047385;28;20050;-69
2022/09/26 17:32:27;;;;;;;97.72;92.78;;;;;;;;;;10052705;28;20678;-69
2022/09/26 17:37:23;;;;;;;95.18;90.20;;;;;;;;;;10045961;28;20047;-69
2022/09/26 17:42:20;;;;;;;89.90;85.03;;;;;;;;;;10052753;28;20043;-69
2022/09/26 17:47:17;;;;;;;89.95;85.35;;;;;;;;;;10049191;28;20048;-69
2022/09/26 17:52:28;;;;;;;84.85;80.65;;;;;;;;;;10050811;28;20051;-69
2022/09/26 17:57:28;;;;;;;77.45;73.45;;;;;;;;;;10046663;28;20059;-69
2022/09/26 18:02:27;;;;;;;76.60;72.72;;;;;;;;;;10046913;28;20494;-69
2022/09/26 18:07:30;;;;;;;72.47;68.72;;;;;;;;;;10042528;28;20059;-69
2022/09/26 18:12:26;;;;;;;82.43;77.83;;;;;;;;;;10041684;28;20808;-69
2022/09/26 18:17:22;;;;;;;77.63;73.60;;;;;;;;;;10043154;28;20036;-69
2022/09/26 18:22:21;;;;;;;76.30;72.22;;;;;;;;;;10045459;28;20980;-69
2022/09/26 18:27:18;;;;;;;79.63;75.40;;;;;;;;;;10059714;28;20055;-69
2022/09/26 18:32:24;;;;;;;75.80;71.88;;;;;;;;;;10056759;28;20128;-69
2022/09/26 18:37:21;;;;;;;79.53;75.38;;;;;;;;;;10054613;28;20040;-69
2022/09/26 18:42:21;;;;;;;78.55;74.55;;;;;;;;;;10055801;28;20047;-69
2022/09/26 18:47:17;;;;;;;76.53;72.55;;;;;;;;;;10053888;28;20039;-71
2022/09/26 18:52:14;;;;;;;82.97;78.88;;;;;;;;;;10049492;28;20039;-69
2022/09/26 19:02:35;;;;;;;79.00;75.00;;;;;;;;;;10056158;28;20044;-68
2022/09/26 19:07:32;;;;;;;76.28;72.38;;;;;;;;;;10056174;28;20043;-68
2022/09/26 19:12:30;;;;;;;84.57;80.18;;;;;;;;;;10057099;28;20036;-69
2022/09/26 19:17:26;;;;;;;80.55;76.35;;;;;;;;;;10062475;28;20051;-69
2022/09/26 19:22:23;;;;;;;85.38;80.97;;;;;;;;;;10057120;28;20036;-68
2022/09/26 19:27:19;;;;;;;86.47;81.82;;;;;;;;;;10060027;28;20048;-68
2022/09/26 19:32:17;;;;;;;85.95;81.30;;;;;;;;;;10058578;28;20047;-68
2022/09/26 19:37:13;;;;;;;90.15;85.40;;;;;;;;;;10059177;28;20039;-67
2022/09/26 19:42:10;;;;;;;91.85;86.75;;;;;;;;;;10052603;28;20618;-69
2022/09/26 19:47:16;;;;;;;85.40;80.80;;;;;;;;;;10045925;28;20583;-69
2022/09/26 19:52:14;;;;;;;94.88;89.70;;;;;;;;;;10054729;28;20417;-69
2022/09/26 19:57:13;;;;;;;100.60;95.10;;;;;;;;;;10060690;28;20050;-71
2022/09/26 20:02:16;;;;;;;95.03;89.65;;;;;;;;;;10057006;28;20051;-70
2022/09/26 20:07:14;;;;;;;96.82;91.53;;;;;;;;;;10058428;28;20528;-71
2022/09/26 20:12:11;;;;;;;92.13;87.13;;;;;;;;;;10064410;28;20532;-70
2022/09/26 20:17:13;;;;;;;95.13;89.75;;;;;;;;;;10054105;28;20051;-70
2022/09/26 20:22:28;;;;;;;97.25;91.95;;;;;;;;;;10064442;28;20047;-70
2022/09/26 20:27:26;;;;;;;101.15;95.55;;;;;;;;;;10063353;28;20061;-70
2022/09/26 20:32:23;;;;;;;97.93;92.32;;;;;;;;;;10053744;28;20043;-70
2022/09/26 20:37:22;;;;;;;91.53;86.38;;;;;;;;;;10072205;28;20039;-70
2022/09/26 20:42:18;;;;;;;91.60;86.30;;;;;;;;;;10071391;28;20054;-71
2022/09/26 20:47:17;;;;;;;91.05;85.97;;;;;;;;;;10069884;28;20054;-70
2022/09/26 20:52:18;;;;;;;94.32;88.82;;;;;;;;;;10066112;28;20051;-70
2022/09/26 20:57:18;;;;;;;92.35;87.28;;;;;;;;;;10070780;28;20062;-69
2022/09/26 21:02:28;;;;;;;93.10;87.55;;;;;;;;;;10062256;28;20054;-70
2022/09/26 21:07:25;;;;;;;92.20;87.00;;;;;;;;;;10071726;28;20505;-70
2022/09/26 21:12:21;;;;;;;93.45;88.25;;;;;;;;;;10071154;28;20053;-69
2022/09/26 21:17:19;;;;;;;92.40;86.55;;;;;;;;;;10067223;28;20062;-71
2022/09/26 21:22:17;;;;;;;94.28;88.68;;;;;;;;;;10065083;28;20077;-70
2022/09/26 21:27:14;;;;;;;96.03;90.53;;;;;;;;;;10066160;28;20055;-69
2022/09/26 21:32:13;;;;;;;92.80;87.35;;;;;;;;;;10068329;28;20139;-69
2022/09/26 21:37:09;;;;;;;93.50;87.95;;;;;;;;;;10069720;28;20420;-70
2022/09/26 21:42:06;;;;;;;94.55;88.95;;;;;;;;;;10073894;28;20059;-70
2022/09/26 21:47:02;;;;;;;95.03;89.55;;;;;;;;;;10064469;28;20082;-71
2022/09/26 21:52:20;;;;;;;91.97;86.57;;;;;;;;;;10063011;28;20424;-70
2022/09/26 21:57:24;;;;;;;95.05;89.50;;;;;;;;;;10069559;28;20058;-70
2022/09/26 22:02:20;;;;;;;91.53;86.13;;;;;;;;;;10059189;28;20428;-70
2022/09/26 22:07:17;;;;;;;96.32;90.72;;;;;;;;;;10069833;28;20549;-69
2022/09/26 22:12:13;;;;;;;91.40;86.25;;;;;;;;;;10063732;28;20707;-69
2022/09/26 22:17:09;;;;;;;96.15;90.55;;;;;;;;;;10063897;28;20073;-68
2022/09/26 22:22:06;;;;;;;97.25;91.75;;;;;;;;;;10068056;28;20055;-69
2022/09/26 22:27:03;;;;;;;95.60;90.13;;;;;;;;;;10061194;28;20043;-70
2022/09/26 22:32:00;;;;;;;100.00;94.40;;;;;;;;;;10082774;28;20047;-69
2022/09/26 22:36:56;;;;;;;98.22;92.65;;;;;;;;;;10069211;28;20043;-70
2022/09/26 22:41:52;;;;;;;93.32;87.93;;;;;;;;;;10071801;28;20051;-70
2022/09/26 22:46:49;;;;;;;102.00;96.00;;;;;;;;;;10065656;28;20044;-69
2022/09/26 22:51:45;;;;;;;98.18;92.35;;;;;;;;;;10066413;28;20489;-69
2022/09/26 22:56:41;;;;;;;100.15;94.25;;;;;;;;;;10063245;28;20043;-69
2022/09/26 23:01:37;;;;;;;99.40;93.63;;;;;;;;;;10062839;28;20051;-69
2022/09/26 23:06:34;;;;;;;99.85;94.18;;;;;;;;;;10070134;28;20059;-69
2022/09/26 23:11:30;;;;;;;97.97;92.07;;;;;;;;;;10069100;28;20039;-68
2022/09/26 23:16:27;;;;;;;102.75;96.75;;;;;;;;;;10074562;28;20404;-68
2022/09/26 23:21:25;;;;;;;99.35;93.65;;;;;;;;;;10076080;28;20051;-69
2022/09/26 23:26:22;;;;;;;99.50;93.70;;;;;;;;;;10065857;28;20051;-70
2022/09/26 23:31:19;;;;;;;97.30;91.45;;;;;;;;;;10077194;28;20059;-70
2022/09/26 23:36:15;;;;;;;98.53;92.47;;;;;;;;;;10075904;28;20042;-70
2022/09/26 23:41:13;;;;;;;100.00;94.30;;;;;;;;;;10077640;28;20067;-68
2022/09/26 23:46:10;;;;;;;98.10;92.43;;;;;;;;;;10075569;28;20078;-68
2022/09/26 23:51:07;;;;;;;99.03;93.25;;;;;;;;;;10077701;28;20066;-70
2022/09/26 23:56:03;;;;;;;99.95;94.15;;;;;;;;;;10069846;28;20047;-70
